sensor_id;sensor_type;location;lat;lon;timestamp;P1;durP1;ratioP1;P2;durP2;ratioP2
2386;SDS011;49473;50.772;8.768;2022-09-09T00:00:46;3.70;;;1.70;;
2386;SDS011;49473;50.772;8.768;2022-09-09T00:03:17;3.20;;;2.07;;
2386;SDS011;49473;50.772;8.768;2022-09-09T00:05:51;3.23;;;2.10;;
2386;SDS011;49473;50.772;8.768;2022-09-09T00:08:27;2.67;;;2.23;;
2386;SDS011;49473;50.772;8.768;2022-09-09T00:11:04;4.60;;;1.90;;
2386;SDS011;49473;50.772;8.768;2022-09-09T00:13:34;3.63;;;2.00;;
2386;SDS011;49473;50.772;8.768;2022-09-09T00:16:08;3.30;;;2.10;;
2386;SDS011;49473;50.772;8.768;2022-09-09T00:18:45;1.70;;;1.60;;
2386;SDS011;49473;50.772;8.768;2022-09-09T00:21:19;2.17;;;1.90;;
2386;SDS011;49473;50.772;8.768;2022-09-09T00:23:53;2.83;;;2.03;;
2386;SDS011;49473;50.772;8.768;2022-09-09T00:26:22;3.67;;;2.50;;
2386;SDS011;49473;50.772;8.768;2022-09-09T00:29:00;4.80;;;2.33;;
2386;SDS011;49473;50.772;8.768;2022-09-09T00:31:36;2.53;;;1.93;;
2386;SDS011;49473;50.772;8.768;2022-09-09T00:34:05;6.33;;;2.03;;
2386;SDS011;49473;50.772;8.768;2022-09-09T00:36:39;6.00;;;2.60;;
2386;SDS011;49473;50.772;8.768;2022-09-09T00:39:09;2.67;;;2.03;;
2386;SDS011;49473;50.772;8.768;2022-09-09T00:41:53;4.70;;;2.20;;
2386;SDS011;49473;50.772;8.768;2022-09-09T00:44:31;2.30;;;1.90;;
2386;SDS011;49473;50.772;8.768;2022-09-09T00:47:04;2.27;;;1.90;;
2386;SDS011;49473;50.772;8.768;2022-09-09T00:49:53;5.30;;;2.17;;
2386;SDS011;49473;50.772;8.768;2022-09-09T00:52:30;2.87;;;2.20;;
2386;SDS011;49473;50.772;8.768;2022-09-09T00:55:05;2.33;;;1.87;;
2386;SDS011;49473;50.772;8.768;2022-09-09T00:57:37;6.43;;;2.30;;
2386;SDS011;49473;50.772;8.768;2022-09-09T01:00:18;3.13;;;2.00;;
2386;SDS011;49473;50.772;8.768;2022-09-09T01:02:50;3.73;;;2.23;;
2386;SDS011;49473;50.772;8.768;2022-09-09T01:05:25;6.07;;;2.10;;
2386;SDS011;49473;50.772;8.768;2022-09-09T01:07:56;4.30;;;2.33;;
2386;SDS011;49473;50.772;8.768;2022-09-09T01:10:29;6.53;;;1.93;;
2386;SDS011;49473;50.772;8.768;2022-09-09T01:13:08;4.17;;;2.70;;
2386;SDS011;49473;50.772;8.768;2022-09-09T01:15:43;3.10;;;2.40;;
2386;SDS011;49473;50.772;8.768;2022-09-09T01:18:13;5.03;;;2.50;;
2386;SDS011;49473;50.772;8.768;2022-09-09T01:20:45;3.67;;;2.30;;
2386;SDS011;49473;50.772;8.768;2022-09-09T01:23:26;2.30;;;2.10;;
2386;SDS011;49473;50.772;8.768;2022-09-09T01:26:17;3.93;;;2.50;;
2386;SDS011;49473;50.772;8.768;2022-09-09T01:28:48;2.80;;;2.50;;
2386;SDS011;49473;50.772;8.768;2022-09-09T01:31:18;3.67;;;2.00;;
2386;SDS011;49473;50.772;8.768;2022-09-09T01:33:47;2.20;;;2.00;;
2386;SDS011;49473;50.772;8.768;2022-09-09T01:36:16;2.93;;;2.20;;
2386;SDS011;49473;50.772;8.768;2022-09-09T01:38:47;4.80;;;2.53;;
2386;SDS011;49473;50.772;8.768;2022-09-09T01:41:14;4.00;;;2.10;;
2386;SDS011;49473;50.772;8.768;2022-09-09T01:43:43;4.53;;;2.10;;
2386;SDS011;49473;50.772;8.768;2022-09-09T01:46:09;2.80;;;2.60;;
2386;SDS011;49473;50.772;8.768;2022-09-09T01:48:38;2.50;;;2.30;;
2386;SDS011;49473;50.772;8.768;2022-09-09T01:51:07;4.60;;;2.17;;
2386;SDS011;49473;50.772;8.768;2022-09-09T01:53:35;2.80;;;2.00;;
2386;SDS011;49473;50.772;8.768;2022-09-09T01:56:05;3.00;;;2.50;;
2386;SDS011;49473;50.772;8.768;2022-09-09T01:58:43;2.57;;;2.10;;
2386;SDS011;49473;50.772;8.768;2022-09-09T02:01:23;4.10;;;2.57;;
2386;SDS011;49473;50.772;8.768;2022-09-09T02:03:57;3.70;;;2.40;;
2386;SDS011;49473;50.772;8.768;2022-09-09T02:06:26;2.30;;;2.10;;
2386;SDS011;49473;50.772;8.768;2022-09-09T02:08:57;3.40;;;2.47;;
2386;SDS011;49473;50.772;8.768;2022-09-09T02:11:27;2.97;;;1.97;;
2386;SDS011;49473;50.772;8.768;2022-09-09T02:13:57;3.60;;;2.10;;
2386;SDS011;49473;50.772;8.768;2022-09-09T02:16:28;3.23;;;2.23;;
2386;SDS011;49473;50.772;8.768;2022-09-09T02:19:00;3.00;;;2.30;;
2386;SDS011;49473;50.772;8.768;2022-09-09T02:21:30;5.83;;;2.20;;
2386;SDS011;49473;50.772;8.768;2022-09-09T02:24:00;3.23;;;2.03;;
2386;SDS011;49473;50.772;8.768;2022-09-09T02:26:30;4.83;;;2.30;;
2386;SDS011;49473;50.772;8.768;2022-09-09T02:29:02;5.63;;;2.30;;
2386;SDS011;49473;50.772;8.768;2022-09-09T02:31:32;3.83;;;2.17;;
2386;SDS011;49473;50.772;8.768;2022-09-09T02:34:01;4.37;;;2.43;;
2386;SDS011;49473;50.772;8.768;2022-09-09T02:36:31;2.97;;;2.00;;
2386;SDS011;49473;50.772;8.768;2022-09-09T02:39:00;2.27;;;2.07;;
2386;SDS011;49473;50.772;8.768;2022-09-09T02:41:28;3.10;;;2.10;;
2386;SDS011;49473;50.772;8.768;2022-09-09T02:43:58;2.97;;;2.33;;
2386;SDS011;49473;50.772;8.768;2022-09-09T02:46:34;2.50;;;2.27;;
2386;SDS011;49473;50.772;8.768;2022-09-09T02:49:09;2.53;;;2.13;;
2386;SDS011;49473;50.772;8.768;2022-09-09T02:51:45;2.43;;;2.00;;
2386;SDS011;49473;50.772;8.768;2022-09-09T02:54:19;1.97;;;1.83;;
2386;SDS011;49473;50.772;8.768;2022-09-09T02:56:53;3.93;;;2.07;;
2386;SDS011;49473;50.772;8.768;2022-09-09T02:59:21;2.73;;;2.23;;
2386;SDS011;49473;50.772;8.768;2022-09-09T03:01:51;2.13;;;1.93;;
2386;SDS011;49473;50.772;8.768;2022-09-09T03:04:19;3.57;;;2.30;;
2386;SDS011;49473;50.772;8.768;2022-09-09T03:06:46;2.70;;;2.17;;
2386;SDS011;49473;50.772;8.768;2022-09-09T03:09:13;3.50;;;2.57;;
2386;SDS011;49473;50.772;8.768;2022-09-09T03:11:40;2.57;;;2.20;;
2386;SDS011;49473;50.772;8.768;2022-09-09T03:14:07;4.20;;;2.47;;
2386;SDS011;49473;50.772;8.768;2022-09-09T03:16:36;3.10;;;2.27;;
2386;SDS011;49473;50.772;8.768;2022-09-09T03:19:04;4.03;;;2.93;;
2386;SDS011;49473;50.772;8.768;2022-09-09T03:21:31;2.60;;;2.37;;
2386;SDS011;49473;50.772;8.768;2022-09-09T03:23:58;3.87;;;1.73;;
2386;SDS011;49473;50.772;8.768;2022-09-09T03:26:28;1.70;;;1.60;;
2386;SDS011;49473;50.772;8.768;2022-09-09T03:28:55;2.30;;;2.10;;
2386;SDS011;49473;50.772;8.768;2022-09-09T03:31:21;3.13;;;2.17;;
2386;SDS011;49473;50.772;8.768;2022-09-09T03:33:49;2.60;;;2.10;;
2386;SDS011;49473;50.772;8.768;2022-09-09T03:36:17;2.27;;;1.73;;
2386;SDS011;49473;50.772;8.768;2022-09-09T03:38:44;2.50;;;2.37;;
2386;SDS011;49473;50.772;8.768;2022-09-09T03:41:10;4.20;;;2.37;;
2386;SDS011;49473;50.772;8.768;2022-09-09T03:43:37;3.07;;;2.20;;
2386;SDS011;49473;50.772;8.768;2022-09-09T03:46:04;2.33;;;2.23;;
2386;SDS011;49473;50.772;8.768;2022-09-09T03:48:31;2.40;;;2.20;;
2386;SDS011;49473;50.772;8.768;2022-09-09T03:50:58;6.20;;;2.70;;
2386;SDS011;49473;50.772;8.768;2022-09-09T03:53:27;3.33;;;2.20;;
2386;SDS011;49473;50.772;8.768;2022-09-09T03:55:55;2.70;;;2.20;;
2386;SDS011;49473;50.772;8.768;2022-09-09T03:58:25;2.47;;;1.77;;
2386;SDS011;49473;50.772;8.768;2022-09-09T04:00:53;2.80;;;2.07;;
2386;SDS011;49473;50.772;8.768;2022-09-09T04:03:21;3.70;;;2.20;;
2386;SDS011;49473;50.772;8.768;2022-09-09T04:05:49;3.20;;;1.90;;
2386;SDS011;49473;50.772;8.768;2022-09-09T04:08:16;2.17;;;1.77;;
2386;SDS011;49473;50.772;8.768;2022-09-09T04:10:45;4.13;;;3.07;;
2386;SDS011;49473;50.772;8.768;2022-09-09T04:13:13;3.07;;;2.30;;
2386;SDS011;49473;50.772;8.768;2022-09-09T04:15:40;2.27;;;1.90;;
2386;SDS011;49473;50.772;8.768;2022-09-09T04:18:08;4.57;;;2.20;;
2386;SDS011;49473;50.772;8.768;2022-09-09T04:20:35;2.37;;;2.17;;
2386;SDS011;49473;50.772;8.768;2022-09-09T04:23:02;3.90;;;2.23;;
2386;SDS011;49473;50.772;8.768;2022-09-09T04:25:29;3.20;;;2.50;;
2386;SDS011;49473;50.772;8.768;2022-09-09T04:27:57;5.00;;;2.40;;
2386;SDS011;49473;50.772;8.768;2022-09-09T04:30:24;4.80;;;2.70;;
2386;SDS011;49473;50.772;8.768;2022-09-09T04:32:52;3.80;;;2.50;;
2386;SDS011;49473;50.772;8.768;2022-09-09T04:35:19;4.50;;;2.20;;
2386;SDS011;49473;50.772;8.768;2022-09-09T04:37:46;2.00;;;1.90;;
2386;SDS011;49473;50.772;8.768;2022-09-09T04:40:13;6.80;;;2.57;;
2386;SDS011;49473;50.772;8.768;2022-09-09T04:42:40;2.57;;;2.20;;
2386;SDS011;49473;50.772;8.768;2022-09-09T04:45:10;3.83;;;2.90;;
2386;SDS011;49473;50.772;8.768;2022-09-09T04:47:38;4.00;;;2.80;;
2386;SDS011;49473;50.772;8.768;2022-09-09T04:50:06;4.10;;;2.70;;
2386;SDS011;49473;50.772;8.768;2022-09-09T04:52:33;3.63;;;2.63;;
2386;SDS011;49473;50.772;8.768;2022-09-09T04:55:00;3.37;;;2.93;;
2386;SDS011;49473;50.772;8.768;2022-09-09T04:57:27;3.57;;;2.80;;
2386;SDS011;49473;50.772;8.768;2022-09-09T04:59:56;4.30;;;3.17;;
2386;SDS011;49473;50.772;8.768;2022-09-09T05:02:26;3.90;;;3.53;;
2386;SDS011;49473;50.772;8.768;2022-09-09T05:04:53;3.43;;;3.13;;
2386;SDS011;49473;50.772;8.768;2022-09-09T05:07:20;4.80;;;3.27;;
2386;SDS011;49473;50.772;8.768;2022-09-09T05:09:47;4.07;;;3.20;;
2386;SDS011;49473;50.772;8.768;2022-09-09T05:12:14;3.20;;;3.00;;
2386;SDS011;49473;50.772;8.768;2022-09-09T05:14:42;3.00;;;2.80;;
2386;SDS011;49473;50.772;8.768;2022-09-09T05:17:09;6.10;;;3.30;;
2386;SDS011;49473;50.772;8.768;2022-09-09T05:19:38;3.77;;;2.80;;
2386;SDS011;49473;50.772;8.768;2022-09-09T05:22:04;2.70;;;2.50;;
2386;SDS011;49473;50.772;8.768;2022-09-09T05:24:32;3.10;;;2.60;;
2386;SDS011;49473;50.772;8.768;2022-09-09T05:26:59;4.43;;;2.70;;
2386;SDS011;49473;50.772;8.768;2022-09-09T05:29:27;2.47;;;2.27;;
2386;SDS011;49473;50.772;8.768;2022-09-09T05:31:54;2.20;;;2.00;;
2386;SDS011;49473;50.772;8.768;2022-09-09T05:34:21;3.83;;;2.03;;
2386;SDS011;49473;50.772;8.768;2022-09-09T05:36:49;2.90;;;2.67;;
2386;SDS011;49473;50.772;8.768;2022-09-09T05:39:17;4.63;;;2.37;;
2386;SDS011;49473;50.772;8.768;2022-09-09T05:41:44;3.80;;;2.10;;
2386;SDS011;49473;50.772;8.768;2022-09-09T05:44:10;2.63;;;2.43;;
2386;SDS011;49473;50.772;8.768;2022-09-09T05:46:38;1.83;;;1.70;;
2386;SDS011;49473;50.772;8.768;2022-09-09T05:49:05;2.20;;;2.00;;
2386;SDS011;49473;50.772;8.768;2022-09-09T05:51:33;3.10;;;2.50;;
2386;SDS011;49473;50.772;8.768;2022-09-09T05:54:01;2.80;;;2.00;;
2386;SDS011;49473;50.772;8.768;2022-09-09T05:56:28;4.13;;;2.33;;
2386;SDS011;49473;50.772;8.768;2022-09-09T05:58:57;2.60;;;2.30;;
2386;SDS011;49473;50.772;8.768;2022-09-09T06:01:26;3.90;;;2.23;;
2386;SDS011;49473;50.772;8.768;2022-09-09T06:03:54;2.47;;;2.03;;
2386;SDS011;49473;50.772;8.768;2022-09-09T06:06:22;3.10;;;2.40;;
2386;SDS011;49473;50.772;8.768;2022-09-09T06:08:51;3.90;;;2.30;;
2386;SDS011;49473;50.772;8.768;2022-09-09T06:11:21;3.50;;;2.13;;
2386;SDS011;49473;50.772;8.768;2022-09-09T06:13:49;2.40;;;2.17;;
2386;SDS011;49473;50.772;8.768;2022-09-09T06:16:19;3.20;;;2.00;;
2386;SDS011;49473;50.772;8.768;2022-09-09T06:18:48;5.53;;;2.20;;
2386;SDS011;49473;50.772;8.768;2022-09-09T06:21:16;5.50;;;2.10;;
2386;SDS011;49473;50.772;8.768;2022-09-09T06:23:44;2.03;;;1.90;;
2386;SDS011;49473;50.772;8.768;2022-09-09T06:26:12;4.43;;;1.87;;
2386;SDS011;49473;50.772;8.768;2022-09-09T06:28:43;5.70;;;1.90;;
2386;SDS011;49473;50.772;8.768;2022-09-09T06:31:11;2.63;;;1.90;;
2386;SDS011;49473;50.772;8.768;2022-09-09T06:33:40;2.30;;;2.10;;
2386;SDS011;49473;50.772;8.768;2022-09-09T06:36:10;4.07;;;2.00;;
2386;SDS011;49473;50.772;8.768;2022-09-09T06:38:37;4.00;;;2.50;;
2386;SDS011;49473;50.772;8.768;2022-09-09T06:41:04;2.17;;;1.97;;
2386;SDS011;49473;50.772;8.768;2022-09-09T06:43:31;4.20;;;1.77;;
2386;SDS011;49473;50.772;8.768;2022-09-09T06:46:00;3.60;;;1.73;;
2386;SDS011;49473;50.772;8.768;2022-09-09T06:48:28;3.80;;;1.57;;
2386;SDS011;49473;50.772;8.768;2022-09-09T06:51:02;5.70;;;1.87;;
2386;SDS011;49473;50.772;8.768;2022-09-09T06:53:30;3.70;;;1.80;;
2386;SDS011;49473;50.772;8.768;2022-09-09T06:55:58;1.70;;;1.60;;
2386;SDS011;49473;50.772;8.768;2022-09-09T06:58:26;3.83;;;2.37;;
2386;SDS011;49473;50.772;8.768;2022-09-09T07:00:53;2.40;;;2.20;;
2386;SDS011;49473;50.772;8.768;2022-09-09T07:03:29;2.50;;;1.97;;
2386;SDS011;49473;50.772;8.768;2022-09-09T07:05:56;5.03;;;2.30;;
2386;SDS011;49473;50.772;8.768;2022-09-09T07:08:24;3.73;;;1.97;;
2386;SDS011;49473;50.772;8.768;2022-09-09T07:10:51;2.57;;;1.73;;
2386;SDS011;49473;50.772;8.768;2022-09-09T07:13:19;2.00;;;1.83;;
2386;SDS011;49473;50.772;8.768;2022-09-09T07:15:46;2.73;;;1.80;;
2386;SDS011;49473;50.772;8.768;2022-09-09T07:18:14;2.30;;;1.60;;
2386;SDS011;49473;50.772;8.768;2022-09-09T07:20:41;4.20;;;1.93;;
2386;SDS011;49473;50.772;8.768;2022-09-09T07:23:08;3.13;;;2.03;;
2386;SDS011;49473;50.772;8.768;2022-09-09T07:25:35;2.97;;;2.03;;
2386;SDS011;49473;50.772;8.768;2022-09-09T07:28:02;2.37;;;1.40;;
2386;SDS011;49473;50.772;8.768;2022-09-09T07:30:29;2.40;;;1.83;;
2386;SDS011;49473;50.772;8.768;2022-09-09T07:32:56;3.83;;;1.70;;
2386;SDS011;49473;50.772;8.768;2022-09-09T07:35:24;4.03;;;1.80;;
2386;SDS011;49473;50.772;8.768;2022-09-09T07:37:52;3.37;;;1.60;;
2386;SDS011;49473;50.772;8.768;2022-09-09T07:40:18;2.60;;;1.83;;
2386;SDS011;49473;50.772;8.768;2022-09-09T07:42:47;3.90;;;1.60;;
2386;SDS011;49473;50.772;8.768;2022-09-09T07:45:13;3.20;;;1.33;;
2386;SDS011;49473;50.772;8.768;2022-09-09T07:47:40;2.70;;;1.10;;
2386;SDS011;49473;50.772;8.768;2022-09-09T07:50:07;2.40;;;1.70;;
2386;SDS011;49473;50.772;8.768;2022-09-09T07:52:36;5.03;;;1.53;;
2386;SDS011;49473;50.772;8.768;2022-09-09T07:55:03;1.63;;;1.17;;
2386;SDS011;49473;50.772;8.768;2022-09-09T07:57:30;2.30;;;1.57;;
2386;SDS011;49473;50.772;8.768;2022-09-09T07:59:57;2.03;;;1.40;;
2386;SDS011;49473;50.772;8.768;2022-09-09T08:02:24;3.20;;;1.40;;
2386;SDS011;49473;50.772;8.768;2022-09-09T08:04:54;1.87;;;1.40;;
2386;SDS011;49473;50.772;8.768;2022-09-09T08:07:21;5.40;;;1.63;;
2386;SDS011;49473;50.772;8.768;2022-09-09T08:09:49;2.67;;;1.73;;
2386;SDS011;49473;50.772;8.768;2022-09-09T08:12:16;4.83;;;1.40;;
2386;SDS011;49473;50.772;8.768;2022-09-09T08:14:43;2.83;;;1.27;;
2386;SDS011;49473;50.772;8.768;2022-09-09T08:17:10;2.57;;;1.17;;
2386;SDS011;49473;50.772;8.768;2022-09-09T08:19:36;1.33;;;1.00;;
2386;SDS011;49473;50.772;8.768;2022-09-09T08:22:03;1.90;;;1.20;;
2386;SDS011;49473;50.772;8.768;2022-09-09T08:24:30;3.30;;;1.53;;
2386;SDS011;49473;50.772;8.768;2022-09-09T08:26:58;4.27;;;1.77;;
2386;SDS011;49473;50.772;8.768;2022-09-09T08:29:25;4.77;;;1.40;;
2386;SDS011;49473;50.772;8.768;2022-09-09T08:31:54;4.03;;;1.20;;
2386;SDS011;49473;50.772;8.768;2022-09-09T08:34:23;1.40;;;1.20;;
2386;SDS011;49473;50.772;8.768;2022-09-09T08:36:52;4.23;;;1.30;;
2386;SDS011;49473;50.772;8.768;2022-09-09T08:39:19;4.43;;;1.13;;
2386;SDS011;49473;50.772;8.768;2022-09-09T08:41:54;2.67;;;1.47;;
2386;SDS011;49473;50.772;8.768;2022-09-09T08:44:37;2.30;;;1.00;;
2386;SDS011;49473;50.772;8.768;2022-09-09T08:47:15;2.97;;;1.20;;
2386;SDS011;49473;50.772;8.768;2022-09-09T08:50:02;4.57;;;1.37;;
2386;SDS011;49473;50.772;8.768;2022-09-09T08:52:39;4.57;;;1.50;;
2386;SDS011;49473;50.772;8.768;2022-09-09T08:55:18;2.80;;;1.30;;
2386;SDS011;49473;50.772;8.768;2022-09-09T08:57:52;5.17;;;1.20;;
2386;SDS011;49473;50.772;8.768;2022-09-09T09:00:22;1.30;;;1.20;;
2386;SDS011;49473;50.772;8.768;2022-09-09T09:02:55;3.60;;;1.40;;
2386;SDS011;49473;50.772;8.768;2022-09-09T09:05:33;3.33;;;1.33;;
2386;SDS011;49473;50.772;8.768;2022-09-09T09:08:05;2.00;;;1.07;;
2386;SDS011;49473;50.772;8.768;2022-09-09T09:10:45;2.17;;;0.83;;
2386;SDS011;49473;50.772;8.768;2022-09-09T09:13:19;2.50;;;1.10;;
2386;SDS011;49473;50.772;8.768;2022-09-09T09:15:48;4.23;;;1.53;;
2386;SDS011;49473;50.772;8.768;2022-09-09T09:18:19;3.37;;;1.60;;
2386;SDS011;49473;50.772;8.768;2022-09-09T09:20:49;2.20;;;1.20;;
2386;SDS011;49473;50.772;8.768;2022-09-09T09:23:21;2.43;;;1.10;;
2386;SDS011;49473;50.772;8.768;2022-09-09T09:25:50;1.80;;;1.47;;
2386;SDS011;49473;50.772;8.768;2022-09-09T09:28:24;2.03;;;1.53;;
2386;SDS011;49473;50.772;8.768;2022-09-09T09:30:53;2.50;;;1.17;;
2386;SDS011;49473;50.772;8.768;2022-09-09T09:33:25;2.20;;;1.10;;
2386;SDS011;49473;50.772;8.768;2022-09-09T09:35:57;2.20;;;1.47;;
2386;SDS011;49473;50.772;8.768;2022-09-09T09:38:25;4.43;;;1.30;;
2386;SDS011;49473;50.772;8.768;2022-09-09T09:40:54;1.90;;;0.97;;
2386;SDS011;49473;50.772;8.768;2022-09-09T09:43:25;1.90;;;1.17;;
2386;SDS011;49473;50.772;8.768;2022-09-09T09:45:53;2.90;;;1.13;;
2386;SDS011;49473;50.772;8.768;2022-09-09T09:48:22;1.60;;;1.00;;
2386;SDS011;49473;50.772;8.768;2022-09-09T09:50:50;3.03;;;1.20;;
2386;SDS011;49473;50.772;8.768;2022-09-09T09:53:21;2.53;;;1.00;;
2386;SDS011;49473;50.772;8.768;2022-09-09T09:55:52;2.30;;;1.20;;
2386;SDS011;49473;50.772;8.768;2022-09-09T09:58:22;1.53;;;1.00;;
2386;SDS011;49473;50.772;8.768;2022-09-09T10:00:51;3.60;;;1.17;;
2386;SDS011;49473;50.772;8.768;2022-09-09T10:03:23;2.10;;;1.40;;
2386;SDS011;49473;50.772;8.768;2022-09-09T10:05:52;1.93;;;1.13;;
2386;SDS011;49473;50.772;8.768;2022-09-09T10:08:21;3.30;;;1.60;;
2386;SDS011;49473;50.772;8.768;2022-09-09T10:10:55;2.80;;;1.67;;
2386;SDS011;49473;50.772;8.768;2022-09-09T10:13:36;2.70;;;1.00;;
2386;SDS011;49473;50.772;8.768;2022-09-09T10:16:13;2.73;;;1.20;;
2386;SDS011;49473;50.772;8.768;2022-09-09T10:18:56;1.73;;;1.60;;
2386;SDS011;49473;50.772;8.768;2022-09-09T10:24:25;1.40;;;0.90;;
2386;SDS011;49473;50.772;8.768;2022-09-09T10:27:03;2.97;;;1.10;;
2386;SDS011;49473;50.772;8.768;2022-09-09T10:29:43;3.67;;;1.30;;
2386;SDS011;49473;50.772;8.768;2022-09-09T10:35:12;3.10;;;1.30;;
2386;SDS011;49473;50.772;8.768;2022-09-09T10:38:08;3.07;;;1.17;;
2386;SDS011;49473;50.772;8.768;2022-09-09T10:40:41;2.50;;;1.10;;
2386;SDS011;49473;50.772;8.768;2022-09-09T10:43:18;4.13;;;1.03;;
2386;SDS011;49473;50.772;8.768;2022-09-09T10:45:59;2.73;;;1.90;;
2386;SDS011;49473;50.772;8.768;2022-09-09T10:48:36;4.13;;;1.50;;
2386;SDS011;49473;50.772;8.768;2022-09-09T10:51:16;4.47;;;1.10;;
2386;SDS011;49473;50.772;8.768;2022-09-09T10:54:04;3.40;;;1.40;;
2386;SDS011;49473;50.772;8.768;2022-09-09T10:56:37;1.80;;;1.00;;
2386;SDS011;49473;50.772;8.768;2022-09-09T10:59:06;1.97;;;1.13;;
2386;SDS011;49473;50.772;8.768;2022-09-09T11:01:40;2.77;;;1.17;;
2386;SDS011;49473;50.772;8.768;2022-09-09T11:04:15;1.60;;;1.10;;
2386;SDS011;49473;50.772;8.768;2022-09-09T11:06:48;2.30;;;1.00;;
2386;SDS011;49473;50.772;8.768;2022-09-09T11:09:19;2.27;;;1.00;;
2386;SDS011;49473;50.772;8.768;2022-09-09T11:11:51;4.40;;;0.87;;
2386;SDS011;49473;50.772;8.768;2022-09-09T11:14:21;1.87;;;1.00;;
2386;SDS011;49473;50.772;8.768;2022-09-09T11:16:56;1.67;;;0.80;;
2386;SDS011;49473;50.772;8.768;2022-09-09T11:19:26;2.00;;;1.10;;
2386;SDS011;49473;50.772;8.768;2022-09-09T11:21:57;2.00;;;0.90;;
2386;SDS011;49473;50.772;8.768;2022-09-09T11:24:27;1.87;;;0.83;;
2386;SDS011;49473;50.772;8.768;2022-09-09T11:27:02;1.90;;;0.87;;
2386;SDS011;49473;50.772;8.768;2022-09-09T11:32:38;0.90;;;0.90;;
2386;SDS011;49473;50.772;8.768;2022-09-09T11:35:26;2.30;;;1.30;;
2386;SDS011;49473;50.772;8.768;2022-09-09T11:38:06;1.53;;;0.90;;
2386;SDS011;49473;50.772;8.768;2022-09-09T11:40:44;1.67;;;0.90;;
2386;SDS011;49473;50.772;8.768;2022-09-09T11:43:13;1.27;;;1.00;;
2386;SDS011;49473;50.772;8.768;2022-09-09T11:45:42;1.40;;;1.13;;
2386;SDS011;49473;50.772;8.768;2022-09-09T11:48:31;1.57;;;0.87;;
2386;SDS011;49473;50.772;8.768;2022-09-09T11:51:01;1.97;;;0.73;;
2386;SDS011;49473;50.772;8.768;2022-09-09T11:53:32;4.43;;;1.00;;
2386;SDS011;49473;50.772;8.768;2022-09-09T11:56:07;2.00;;;1.00;;
2386;SDS011;49473;50.772;8.768;2022-09-09T11:58:41;2.23;;;1.00;;
2386;SDS011;49473;50.772;8.768;2022-09-09T12:01:25;3.50;;;1.30;;
2386;SDS011;49473;50.772;8.768;2022-09-09T12:04:17;2.57;;;1.30;;
2386;SDS011;49473;50.772;8.768;2022-09-09T12:06:56;2.73;;;1.20;;
2386;SDS011;49473;50.772;8.768;2022-09-09T12:09:29;4.93;;;1.83;;
2386;SDS011;49473;50.772;8.768;2022-09-09T12:12:27;2.93;;;1.03;;
2386;SDS011;49473;50.772;8.768;2022-09-09T12:15:16;2.20;;;1.10;;
2386;SDS011;49473;50.772;8.768;2022-09-09T12:17:46;1.93;;;0.97;;
2386;SDS011;49473;50.772;8.768;2022-09-09T12:20:16;3.87;;;1.10;;
2386;SDS011;49473;50.772;8.768;2022-09-09T12:22:50;3.77;;;1.27;;
2386;SDS011;49473;50.772;8.768;2022-09-09T12:25:31;2.53;;;1.40;;
2386;SDS011;49473;50.772;8.768;2022-09-09T12:28:09;1.07;;;0.70;;
2386;SDS011;49473;50.772;8.768;2022-09-09T12:30:42;1.80;;;0.97;;
2386;SDS011;49473;50.772;8.768;2022-09-09T12:33:16;1.80;;;1.00;;
2386;SDS011;49473;50.772;8.768;2022-09-09T12:35:46;1.17;;;0.87;;
2386;SDS011;49473;50.772;8.768;2022-09-09T12:38:18;2.40;;;0.90;;
2386;SDS011;49473;50.772;8.768;2022-09-09T12:40:54;1.53;;;0.97;;
2386;SDS011;49473;50.772;8.768;2022-09-09T12:43:22;2.73;;;0.80;;
2386;SDS011;49473;50.772;8.768;2022-09-09T12:45:51;2.13;;;0.77;;
2386;SDS011;49473;50.772;8.768;2022-09-09T12:48:24;1.43;;;0.70;;
2386;SDS011;49473;50.772;8.768;2022-09-09T12:50:56;3.00;;;0.80;;
2386;SDS011;49473;50.772;8.768;2022-09-09T12:53:25;1.67;;;0.90;;
2386;SDS011;49473;50.772;8.768;2022-09-09T12:55:56;2.03;;;1.10;;
2386;SDS011;49473;50.772;8.768;2022-09-09T12:58:24;1.63;;;1.40;;
2386;SDS011;49473;50.772;8.768;2022-09-09T13:00:54;4.00;;;1.10;;
2386;SDS011;49473;50.772;8.768;2022-09-09T13:03:22;2.53;;;0.90;;
2386;SDS011;49473;50.772;8.768;2022-09-09T13:05:50;3.80;;;1.03;;
2386;SDS011;49473;50.772;8.768;2022-09-09T13:08:19;2.10;;;1.10;;
2386;SDS011;49473;50.772;8.768;2022-09-09T13:10:47;1.53;;;1.10;;
2386;SDS011;49473;50.772;8.768;2022-09-09T13:13:20;2.87;;;1.30;;
2386;SDS011;49473;50.772;8.768;2022-09-09T13:15:49;2.67;;;1.23;;
2386;SDS011;49473;50.772;8.768;2022-09-09T13:18:19;2.30;;;1.30;;
2386;SDS011;49473;50.772;8.768;2022-09-09T13:20:48;1.97;;;1.40;;
2386;SDS011;49473;50.772;8.768;2022-09-09T13:25:54;1.60;;;1.00;;
2386;SDS011;49473;50.772;8.768;2022-09-09T13:28:22;1.63;;;1.10;;
2386;SDS011;49473;50.772;8.768;2022-09-09T13:30:57;2.23;;;1.20;;
2386;SDS011;49473;50.772;8.768;2022-09-09T13:33:29;1.73;;;1.00;;
2386;SDS011;49473;50.772;8.768;2022-09-09T13:35:58;1.20;;;0.83;;
2386;SDS011;49473;50.772;8.768;2022-09-09T13:38:31;3.10;;;1.30;;
2386;SDS011;49473;50.772;8.768;2022-09-09T13:41:00;2.23;;;1.30;;
2386;SDS011;49473;50.772;8.768;2022-09-09T13:43:29;2.77;;;1.10;;
2386;SDS011;49473;50.772;8.768;2022-09-09T13:45:58;1.37;;;1.07;;
2386;SDS011;49473;50.772;8.768;2022-09-09T13:48:26;2.43;;;1.00;;
2386;SDS011;49473;50.772;8.768;2022-09-09T13:50:59;2.80;;;1.13;;
2386;SDS011;49473;50.772;8.768;2022-09-09T13:53:29;1.23;;;0.87;;
2386;SDS011;49473;50.772;8.768;2022-09-09T13:55:56;2.60;;;1.20;;
2386;SDS011;49473;50.772;8.768;2022-09-09T13:58:23;2.73;;;1.10;;
2386;SDS011;49473;50.772;8.768;2022-09-09T14:00:51;1.70;;;1.20;;
2386;SDS011;49473;50.772;8.768;2022-09-09T14:03:20;2.83;;;1.30;;
2386;SDS011;49473;50.772;8.768;2022-09-09T14:05:47;4.13;;;1.13;;
2386;SDS011;49473;50.772;8.768;2022-09-09T14:08:16;2.97;;;2.13;;
2386;SDS011;49473;50.772;8.768;2022-09-09T14:10:49;4.87;;;1.67;;
2386;SDS011;49473;50.772;8.768;2022-09-09T14:13:17;3.27;;;1.40;;
2386;SDS011;49473;50.772;8.768;2022-09-09T14:15:46;3.30;;;2.10;;
2386;SDS011;49473;50.772;8.768;2022-09-09T14:18:14;2.60;;;1.60;;
2386;SDS011;49473;50.772;8.768;2022-09-09T14:20:41;4.97;;;1.53;;
2386;SDS011;49473;50.772;8.768;2022-09-09T14:23:09;1.70;;;1.60;;
2386;SDS011;49473;50.772;8.768;2022-09-09T14:25:39;2.20;;;1.47;;
2386;SDS011;49473;50.772;8.768;2022-09-09T14:28:10;2.30;;;1.33;;
2386;SDS011;49473;50.772;8.768;2022-09-09T14:30:38;2.80;;;1.40;;
2386;SDS011;49473;50.772;8.768;2022-09-09T14:33:06;2.23;;;1.10;;
2386;SDS011;49473;50.772;8.768;2022-09-09T14:35:34;1.93;;;1.30;;
2386;SDS011;49473;50.772;8.768;2022-09-09T14:38:01;2.33;;;1.30;;
2386;SDS011;49473;50.772;8.768;2022-09-09T14:40:29;2.87;;;1.43;;
2386;SDS011;49473;50.772;8.768;2022-09-09T14:42:56;2.47;;;1.07;;
2386;SDS011;49473;50.772;8.768;2022-09-09T14:45:25;2.17;;;1.03;;
2386;SDS011;49473;50.772;8.768;2022-09-09T14:47:52;3.63;;;1.40;;
2386;SDS011;49473;50.772;8.768;2022-09-09T14:50:19;2.53;;;1.03;;
2386;SDS011;49473;50.772;8.768;2022-09-09T14:52:46;1.63;;;0.90;;
2386;SDS011;49473;50.772;8.768;2022-09-09T14:55:13;2.37;;;0.80;;
2386;SDS011;49473;50.772;8.768;2022-09-09T14:57:41;1.20;;;0.90;;
2386;SDS011;49473;50.772;8.768;2022-09-09T15:00:08;2.47;;;1.47;;
2386;SDS011;49473;50.772;8.768;2022-09-09T15:02:37;1.27;;;1.00;;
2386;SDS011;49473;50.772;8.768;2022-09-09T15:05:04;2.90;;;0.97;;
2386;SDS011;49473;50.772;8.768;2022-09-09T15:07:31;1.00;;;0.90;;
2386;SDS011;49473;50.772;8.768;2022-09-09T15:09:59;1.00;;;0.90;;
2386;SDS011;49473;50.772;8.768;2022-09-09T15:12:25;2.77;;;1.47;;
2386;SDS011;49473;50.772;8.768;2022-09-09T15:14:53;1.73;;;1.10;;
2386;SDS011;49473;50.772;8.768;2022-09-09T15:17:20;1.33;;;1.03;;
2386;SDS011;49473;50.772;8.768;2022-09-09T15:19:53;2.50;;;0.93;;
2386;SDS011;49473;50.772;8.768;2022-09-09T15:22:20;1.67;;;0.93;;
2386;SDS011;49473;50.772;8.768;2022-09-09T15:24:47;1.33;;;1.10;;
2386;SDS011;49473;50.772;8.768;2022-09-09T15:27:14;2.07;;;1.03;;
2386;SDS011;49473;50.772;8.768;2022-09-09T15:29:41;2.10;;;0.80;;
2386;SDS011;49473;50.772;8.768;2022-09-09T15:32:09;2.63;;;1.20;;